Time;durP1;ratioP1;P1;durP2;ratioP2;P2;SDS_P1;SDS_P2;PMS_P1;PMS_P2;Temp;Humidity;BMP_temperature;BMP_pressure;BME280_temperature;BME280_humidity;BME280_pressure;Samples;Min_cycle;Max_cycle;Signal;HPM_P1;HPM_P2
2022/10/02 00:02:27;;;;;;;32.75;18.20;;;;;;;11.69;100.00;101329.28;4992012;28;20296;-60
2022/10/02 00:05:03;;;;;;;33.08;19.10;;;;;;;11.77;100.00;101344.38;4992479;28;20077;-60
2022/10/02 00:07:41;;;;;;;33.08;18.98;;;;;;;11.78;100.00;101336.91;4991323;28;20038;-59
2022/10/02 00:10:25;;;;;;;28.88;19.20;;;;;;;11.77;100.00;101346.34;4992669;28;20037;-60
2022/10/02 00:12:56;;;;;;;27.77;18.00;;;;;;;11.64;100.00;101328.53;4992718;28;20034;-60
2022/10/02 00:15:25;;;;;;;29.80;16.55;;;;;;;11.61;100.00;101329.13;4993151;28;20050;-60
2022/10/02 00:17:53;;;;;;;31.38;17.25;;;;;;;11.63;100.00;101341.56;4992393;28;20037;-59
2022/10/02 00:20:25;;;;;;;31.27;16.58;;;;;;;11.57;100.00;101341.97;4992094;28;20117;-59
2022/10/02 00:23:28;;;;;;;31.33;16.33;;;;;;;11.50;100.00;101340.38;4991965;28;20523;-60
2022/10/02 00:26:22;;;;;;;32.90;16.58;;;;;;;11.43;100.00;101344.66;4992900;28;20041;-60
2022/10/02 00:29:26;;;;;;;32.03;16.17;;;;;;;11.34;100.00;101342.53;4991500;28;20462;-60
2022/10/02 00:32:12;;;;;;;29.50;16.15;;;;;;;11.16;100.00;101326.75;4988770;28;20042;-61
2022/10/02 00:34:52;;;;;;;30.00;16.00;;;;;;;11.19;100.00;101342.75;5009375;28;20045;-60
2022/10/02 00:37:32;;;;;;;34.33;15.68;;;;;;;11.14;100.00;101348.38;5010926;28;20525;-60
2022/10/02 00:40:28;;;;;;;26.30;14.32;;;;;;;11.09;100.00;101343.75;5010980;28;20445;-60
2022/10/02 00:43:23;;;;;;;31.73;14.68;;;;;;;11.05;100.00;101345.44;5011260;28;20442;-60
2022/10/02 00:46:10;;;;;;;30.27;13.73;;;;;;;11.03;100.00;101351.28;5011269;28;20111;-60
2022/10/02 00:49:02;;;;;;;26.80;13.43;;;;;;;11.02;100.00;101346.88;5011804;28;20040;-60
2022/10/02 00:52:04;;;;;;;30.70;14.45;;;;;;;11.04;100.00;101349.34;5011916;28;20112;-61
2022/10/02 00:54:48;;;;;;;29.42;13.55;;;;;;;11.05;100.00;101348.22;5012248;28;20037;-61
2022/10/02 00:57:38;;;;;;;;;;;;;;;11.06;100.00;101344.31;5012469;28;20034;-60
2022/10/02 01:00:10;;;;;;;29.75;14.35;;;;;;;11.04;100.00;101338.25;5011113;28;20047;-61
2022/10/02 01:02:35;;;;;;;29.42;13.15;;;;;;;11.03;100.00;101342.16;5008992;28;20049;-61
2022/10/02 01:05:07;;;;;;;32.43;13.37;;;;;;;11.00;100.00;101345.53;5010709;28;20022;-61
2022/10/02 01:07:37;;;;;;;28.67;12.82;;;;;;;10.98;100.00;101340.25;5011182;28;20273;-61
2022/10/02 01:10:03;;;;;;;28.42;12.80;;;;;;;10.98;100.00;101334.72;5010998;28;20034;-61
2022/10/02 01:12:29;;;;;;;31.10;12.55;;;;;;;10.97;100.00;101340.56;5010084;28;20132;-61
2022/10/02 01:14:54;;;;;;;31.58;12.95;;;;;;;10.99;100.00;101335.56;5010581;28;20431;-60
2022/10/02 01:17:25;;;;;;;34.70;13.48;;;;;;;10.84;100.00;101314.44;5027207;28;20112;-61
2022/10/02 01:19:51;;;;;;;29.65;13.45;;;;;;;11.00;100.00;101340.00;5031035;28;20108;-61
2022/10/02 01:22:32;;;;;;;34.65;12.93;;;;;;;11.00;100.00;101340.00;5030184;28;20109;-61
2022/10/02 01:25:00;;;;;;;31.60;12.98;;;;;;;10.99;100.00;101328.06;5030376;28;20091;-61
2022/10/02 01:27:26;;;;;;;27.85;13.07;;;;;;;11.02;100.00;101341.34;5030274;28;20029;-61
2022/10/02 01:29:59;;;;;;;27.35;13.27;;;;;;;11.02;100.00;101334.97;5029829;28;20032;-61
2022/10/02 01:32:26;;;;;;;31.15;13.30;;;;;;;11.04;100.00;101341.03;5030512;28;20025;-61
2022/10/02 01:34:53;;;;;;;29.23;13.13;;;;;;;11.07;100.00;101332.94;5029428;28;20018;-61
2022/10/02 01:37:21;;;;;;;28.25;13.45;;;;;;;11.10;100.00;101337.06;5031059;28;20026;-61
2022/10/02 01:39:47;;;;;;;34.58;12.93;;;;;;;11.14;100.00;101346.44;5030909;28;20030;-62
2022/10/02 01:42:13;;;;;;;27.73;12.25;;;;;;;11.18;100.00;101343.88;5030920;28;20490;-61
2022/10/02 01:44:38;;;;;;;30.30;12.73;;;;;;;11.19;100.00;101346.34;5030981;28;20029;-60
2022/10/02 01:47:11;;;;;;;28.08;12.77;;;;;;;11.22;100.00;101347.72;5030696;28;20021;-61
2022/10/02 01:50:04;;;;;;;28.35;12.70;;;;;;;11.25;100.00;101352.66;5030816;28;20056;-61
2022/10/02 01:52:41;;;;;;;31.30;12.70;;;;;;;11.29;100.00;101341.81;5030671;28;20067;-61
2022/10/02 01:55:31;;;;;;;28.52;12.10;;;;;;;11.29;100.00;101342.63;5031366;28;20025;-61
2022/10/02 01:58:08;;;;;;;27.58;12.48;;;;;;;11.33;100.00;101345.63;5030318;28;20033;-61
2022/10/02 02:01:04;;;;;;;31.45;12.32;;;;;;;11.27;100.00;101339.31;5029744;28;20034;-61
2022/10/02 02:03:40;;;;;;;33.17;13.18;;;;;;;11.33;100.00;101342.84;5030124;28;20037;-61
2022/10/02 02:06:38;;;;;;;32.30;12.85;;;;;;;11.29;100.00;101330.75;5030079;28;20029;-61
2022/10/02 02:09:11;;;;;;;31.27;13.13;;;;;;;11.40;100.00;101348.84;5030401;28;20396;-60
2022/10/02 02:11:42;;;;;;;32.88;12.88;;;;;;;11.45;100.00;101353.47;5029566;28;20175;-61
2022/10/02 02:14:26;;;;;;;36.25;13.10;;;;;;;11.47;100.00;101354.84;5029509;28;20460;-61
2022/10/02 02:17:06;;;;;;;35.15;13.20;;;;;;;11.48;100.00;101358.44;5028901;28;20413;-61
2022/10/02 02:19:55;;;;;;;31.40;12.38;;;;;;;11.40;100.00;101337.75;5029813;28;20086;-61
2022/10/02 02:22:27;;;;;;;38.53;13.63;;;;;;;11.43;100.00;101339.13;5029870;28;20022;-61
2022/10/02 02:25:15;;;;;;;34.42;12.95;;;;;;;11.45;100.00;101345.16;5033527;28;20043;-61
2022/10/02 02:27:47;;;;;;;32.97;13.15;;;;;;;11.53;100.00;101348.09;5034413;28;20449;-61
2022/10/02 02:30:14;;;;;;;35.65;11.90;;;;;;;11.64;100.00;101356.25;5033759;28;20037;-61
2022/10/02 02:32:46;;;;;;;31.55;11.90;;;;;;;11.57;100.00;101336.41;5032996;28;20037;-60
2022/10/02 02:35:38;;;;;;;31.38;12.35;;;;;;;11.68;100.00;101355.34;5033051;28;20116;-61
2022/10/02 02:38:13;;;;;;;33.17;13.00;;;;;;;11.71;100.00;101362.22;5033502;28;20048;-60
2022/10/02 02:40:42;;;;;;;28.13;11.85;;;;;;;11.76;100.00;101361.31;5033731;28;20033;-61
2022/10/02 02:43:40;;;;;;;35.83;12.40;;;;;;;11.78;100.00;101361.84;5033589;28;20057;-60
2022/10/02 02:46:13;;;;;;;25.02;11.55;;;;;;;11.76;100.00;101356.59;5033984;28;20076;-61
2022/10/02 02:48:43;;;;;;;32.00;12.25;;;;;;;11.73;100.00;101354.44;5032501;28;20492;-61
2022/10/02 02:51:17;;;;;;;31.85;12.68;;;;;;;11.72;100.00;101363.88;5033715;28;20026;-61
2022/10/02 02:54:02;;;;;;;34.20;13.93;;;;;;;11.74;100.00;101367.19;5033581;28;20030;-61
2022/10/02 02:56:31;;;;;;;28.52;12.40;;;;;;;11.76;100.00;101370.44;5033600;28;20021;-61
2022/10/02 02:59:03;;;;;;;34.35;13.25;;;;;;;11.81;100.00;101364.00;5033806;28;20018;-61
2022/10/02 03:01:28;;;;;;;32.60;12.48;;;;;;;11.82;100.00;101363.72;5015902;28;20428;-61
2022/10/02 03:03:54;;;;;;;34.50;13.40;;;;;;;11.87;100.00;101362.81;5013292;28;20034;-61
2022/10/02 03:06:30;;;;;;;32.15;13.25;;;;;;;11.85;100.00;101365.88;5013611;28;20059;-61
2022/10/02 03:08:56;;;;;;;30.88;12.93;;;;;;;11.85;100.00;101359.50;5013611;28;20461;-61
2022/10/02 03:11:45;;;;;;;33.80;11.85;;;;;;;11.84;100.00;101344.00;5012747;28;20056;-61
2022/10/02 03:14:35;;;;;;;31.10;12.40;;;;;;;11.82;100.00;101354.56;5010943;28;20046;-61
2022/10/02 03:17:29;;;;;;;33.10;12.63;;;;;;;11.83;100.00;101357.06;5012993;28;20037;-62
2022/10/02 03:20:00;;;;;;;28.73;12.65;;;;;;;11.84;100.00;101360.63;5012572;28;20037;-61
2022/10/02 03:22:40;;;;;;;30.10;12.50;;;;;;;11.82;100.00;101360.94;5013042;28;20473;-61
2022/10/02 03:25:20;;;;;;;32.63;12.38;;;;;;;11.82;100.00;101357.34;5013064;28;20091;-61
2022/10/02 03:27:55;;;;;;;27.55;11.77;;;;;;;11.85;100.00;101362.28;5013380;28;20115;-61
2022/10/02 03:30:21;;;;;;;28.77;11.93;;;;;;;11.86;100.00;101364.75;5011712;28;20060;-61
2022/10/02 03:32:50;;;;;;;31.55;11.85;;;;;;;11.82;100.00;101351.78;5012423;28;20030;-61
2022/10/02 03:35:17;;;;;;;26.33;11.75;;;;;;;11.89;100.00;101371.66;5010955;28;20029;-61
2022/10/02 03:37:49;;;;;;;26.55;11.95;;;;;;;11.93;100.00;101374.66;5012513;28;20030;-61
2022/10/02 03:40:15;;;;;;;23.95;11.27;;;;;;;11.95;100.00;101364.91;5012399;28;20075;-61
2022/10/02 03:42:40;;;;;;;26.02;11.45;;;;;;;11.96;100.00;101369.31;5010907;28;20172;-61
2022/10/02 03:45:06;;;;;;;25.10;11.95;;;;;;;11.99;100.00;101370.69;5013081;28;20037;-61
2022/10/02 03:47:32;;;;;;;24.98;11.85;;;;;;;11.99;100.00;101368.75;5013056;28;20115;-61
2022/10/02 03:49:57;;;;;;;25.67;11.23;;;;;;;12.01;100.00;101379.53;5012885;28;20358;-61
2022/10/02 03:52:23;;;;;;;27.17;11.82;;;;;;;11.99;100.00;101377.06;5027735;28;20481;-61
2022/10/02 03:54:55;;;;;;;26.98;12.13;;;;;;;11.99;100.00;101370.69;5032783;28;20033;-60
2022/10/02 03:57:24;;;;;;;25.27;11.52;;;;;;;11.99;100.00;101365.13;5032353;28;20036;-62
2022/10/02 04:00:00;;;;;;;26.08;11.85;;;;;;;11.99;100.00;101365.97;5032094;28;20115;-63
2022/10/02 04:02:36;;;;;;;25.40;11.43;;;;;;;11.92;100.00;101354.41;5031808;28;20036;-62
2022/10/02 04:05:08;;;;;;;23.92;11.65;;;;;;;12.00;100.00;101378.69;5031795;28;20600;-61
2022/10/02 04:07:38;;;;;;;25.73;11.90;;;;;;;11.90;100.00;101367.75;5031885;28;20032;-61
2022/10/02 04:10:28;;;;;;;24.80;11.75;;;;;;;11.99;100.00;101379.00;5031607;28;20194;-61
2022/10/02 04:13:01;;;;;;;22.98;11.55;;;;;;;11.96;100.00;101377.63;5031111;28;20033;-61
2022/10/02 04:15:33;;;;;;;23.13;11.57;;;;;;;11.93;100.00;101369.09;5031879;28;20144;-61
2022/10/02 04:18:05;;;;;;;23.33;11.27;;;;;;;11.95;100.00;101378.75;5032097;28;20026;-61
2022/10/02 04:21:12;;;;;;;25.30;11.07;;;;;;;11.95;100.00;101364.91;5029678;28;20029;-61
2022/10/02 04:23:50;;;;;;;21.73;10.68;;;;;;;11.85;100.00;101348.44;5001892;28;20124;-61
2022/10/02 04:26:19;;;;;;;23.33;11.10;;;;;;;11.89;100.00;101360.56;5031081;28;20287;-60
2022/10/02 04:28:51;;;;;;;22.55;10.65;;;;;;;11.77;100.00;101351.88;5024186;28;20500;-61
2022/10/02 04:31:16;;;;;;;20.70;11.98;;;;;;;11.79;100.00;101364.31;5011526;28;20454;-61
2022/10/02 04:33:42;;;;;;;23.30;11.30;;;;;;;11.75;100.00;101360.50;5011588;28;20088;-61
2022/10/02 04:36:19;;;;;;;22.02;11.18;;;;;;;11.70;100.00;101353.09;5010111;28;20104;-61
2022/10/02 04:39:12;;;;;;;23.40;12.07;;;;;;;11.65;100.00;101363.44;5010035;28;20062;-61
2022/10/02 04:41:56;;;;;;;22.48;12.05;;;;;;;11.59;100.00;101372.94;5010251;28;20397;-61
2022/10/02 04:44:49;;;;;;;23.85;12.40;;;;;;;11.50;100.00;101379.16;5011915;28;20049;-61
2022/10/02 04:47:36;;;;;;;22.75;12.85;;;;;;;11.57;100.00;101389.06;5011180;28;20037;-61
2022/10/02 04:50:20;;;;;;;24.80;13.23;;;;;;;11.57;100.00;101400.97;5011504;28;20045;-61
2022/10/02 04:52:49;;;;;;;;;;;;;;;11.59;100.00;101403.41;5012517;28;20052;-61
2022/10/02 04:55:17;;;;;;;24.98;13.75;;;;;;;11.61;100.00;101398.41;5011690;28;20000;-61
2022/10/02 04:58:13;;;;;;;26.85;13.98;;;;;;;11.61;100.00;101409.50;5010881;28;20029;-61
2022/10/02 05:00:47;;;;;;;27.45;14.82;;;;;;;11.50;100.00;101398.56;5011568;28;20028;-61
2022/10/02 05:03:54;;;;;;;25.02;13.65;;;;;;;11.59;100.00;101415.34;5011173;28;20088;-60
2022/10/02 05:06:41;;;;;;;24.98;14.02;;;;;;;11.48;100.00;101394.44;4983604;28;20505;-61
2022/10/02 05:09:22;;;;;;;27.85;14.63;;;;;;;11.57;100.00;101411.25;5011376;28;20050;-60
2022/10/02 05:11:56;;;;;;;24.30;14.25;;;;;;;11.57;100.00;101406.50;5011274;28;20030;-61
2022/10/02 05:14:28;;;;;;;27.13;14.73;;;;;;;11.58;100.00;101416.47;5011819;28;20058;-61
2022/10/02 05:17:27;;;;;;;27.27;14.95;;;;;;;11.59;100.00;101412.56;5010897;28;20026;-61
2022/10/02 05:20:21;;;;;;;27.88;14.38;;;;;;;11.62;100.00;101411.97;5011034;28;20058;-62
2022/10/02 05:22:58;;;;;;;30.38;16.08;;;;;;;11.64;100.00;101418.03;5011375;28;20030;-61
2022/10/02 05:25:38;;;;;;;28.05;15.40;;;;;;;11.66;100.00;101413.03;5010818;28;20187;-61
2022/10/02 05:28:25;;;;;;;30.88;16.08;;;;;;;11.69;100.00;101417.13;5009608;28;20037;-61
2022/10/02 05:31:14;;;;;;;31.63;16.35;;;;;;;11.69;100.00;101423.50;5010801;28;20033;-61
2022/10/02 05:34:08;;;;;;;30.77;15.23;;;;;;;11.70;100.00;101422.41;5011266;28;20089;-61
2022/10/02 05:36:51;;;;;;;30.88;17.05;;;;;;;11.70;100.00;101430.72;5010315;28;20080;-62
2022/10/02 05:39:24;;;;;;;31.58;16.90;;;;;;;11.71;100.00;101437.06;5010614;28;20084;-62
2022/10/02 05:42:04;;;;;;;31.35;17.08;;;;;;;11.69;100.00;101433.75;5010706;28;20384;-61
2022/10/02 05:44:40;;;;;;;32.13;18.42;;;;;;;11.68;100.00;101432.13;5011830;28;20034;-61
2022/10/02 05:47:08;;;;;;;35.20;18.35;;;;;;;11.68;100.00;101430.19;5011483;28;20532;-60
2022/10/02 05:49:39;;;;;;;35.40;18.30;;;;;;;11.68;100.00;101429.34;5011493;28;20026;-61
2022/10/02 05:52:23;;;;;;;34.25;18.23;;;;;;;11.69;100.00;101431.00;5011583;28;20041;-61
2022/10/02 05:54:59;;;;;;;30.77;18.20;;;;;;;11.69;100.00;101433.75;5010947;28;20053;-60
2022/10/02 05:57:37;;;;;;;35.35;18.65;;;;;;;11.64;100.00;101428.31;5011519;28;20539;-61
2022/10/02 06:00:41;;;;;;;35.33;18.80;;;;;;;11.75;100.00;101446.44;5014412;28;20029;-61
2022/10/02 06:03:25;;;;;;;37.00;18.52;;;;;;;11.81;100.00;101452.72;5013866;28;20041;-61
2022/10/02 06:05:55;;;;;;;32.58;18.70;;;;;;;11.86;100.00;101452.66;5015213;28;20108;-61
2022/10/02 06:08:53;;;;;;;35.33;18.70;;;;;;;11.88;100.00;101444.88;5015039;28;20523;-61
2022/10/02 06:11:29;;;;;;;36.38;18.45;;;;;;;11.84;100.00;101427.16;4992689;28;20366;-61
2022/10/02 06:14:19;;;;;;;37.15;19.50;;;;;;;11.95;100.00;101445.31;5014153;28;20065;-61
2022/10/02 06:16:54;;;;;;;36.72;18.33;;;;;;;12.00;100.00;101466.63;5014290;28;20069;-61
2022/10/02 06:19:32;;;;;;;41.03;20.23;;;;;;;12.04;100.00;101469.59;5015151;28;20041;-61
2022/10/02 06:22:13;;;;;;;35.05;18.33;;;;;;;11.98;100.00;101458.59;5015029;28;20037;-62
2022/10/02 06:24:49;;;;;;;35.63;18.45;;;;;;;12.01;100.00;101463.53;5015102;28;20396;-60
2022/10/02 06:27:30;;;;;;;35.83;19.42;;;;;;;12.13;100.00;101476.13;5014997;28;20099;-61
2022/10/02 06:30:05;;;;;;;36.47;19.05;;;;;;;12.16;100.00;101470.78;5014873;28;20405;-60
2022/10/02 06:32:43;;;;;;;38.03;19.05;;;;;;;12.14;100.00;101466.69;5010112;28;20562;-60
2022/10/02 06:35:14;;;;;;;43.22;18.67;;;;;;;12.26;100.00;101472.59;5015003;28;20034;-60
2022/10/02 06:38:31;;;;;;;33.38;18.67;;;;;;;12.32;100.00;101474.16;5014824;28;20018;-60
2022/10/02 06:41:14;;;;;;;35.30;17.20;;;;;;;12.38;100.00;101477.66;4991808;28;20049;-60
2022/10/02 06:44:03;;;;;;;32.55;17.45;;;;;;;12.41;100.00;101474.28;5014788;28;20109;-60
2022/10/02 06:47:13;;;;;;;31.08;15.77;;;;;;;12.45;100.00;101493.94;5014374;28;20026;-61
2022/10/02 06:50:07;;;;;;;35.00;16.08;;;;;;;12.40;100.00;101482.91;4985084;28;20489;-59
2022/10/02 06:52:44;;;;;;;34.05;16.30;;;;;;;12.54;100.00;101491.28;4994989;28;20065;-60
2022/10/02 06:55:25;;;;;;;35.22;15.38;;;;;;;12.52;100.00;101490.75;4995200;28;20470;-60
2022/10/02 06:58:06;;;;;;;31.30;15.40;;;;;;;12.64;100.00;101507.75;4995439;28;20110;-60
2022/10/02 07:00:44;;;;;;;32.53;14.50;;;;;;;12.59;100.00;101496.75;4994404;28;20037;-59
2022/10/02 07:03:26;;;;;;;34.38;13.93;;;;;;;12.72;100.00;101506.25;4993993;28;20204;-60
2022/10/02 07:06:12;;;;;;;32.70;14.57;;;;;;;12.74;100.00;101506.75;4993426;28;20050;-60
2022/10/02 07:09:00;;;;;;;31.67;13.88;;;;;;;12.77;100.00;101504.19;4992769;28;20022;-60
2022/10/02 07:11:34;;;;;;;30.27;13.48;;;;;;;12.79;100.00;101513.06;4991155;28;20064;-60
2022/10/02 07:14:26;;;;;;;31.45;13.80;;;;;;;12.76;100.00;101493.38;4994133;28;20050;-60
2022/10/02 07:16:56;;;;;;;32.15;13.02;;;;;;;12.88;100.00;101518.72;4990077;28;20073;-60
2022/10/02 07:19:46;;;;;;;31.85;12.93;;;;;;;12.95;100.00;101512.75;4994263;28;20050;-58
2022/10/02 07:22:43;;;;;;;31.58;13.73;;;;;;;13.01;100.00;101519.06;4993532;28;20129;-59
2022/10/02 07:25:36;;;;;;;31.38;13.93;;;;;;;13.03;100.00;101516.78;4993918;28;20065;-60
2022/10/02 07:28:20;;;;;;;30.58;13.43;;;;;;;13.07;100.00;101518.66;4992905;28;20035;-59
2022/10/02 07:30:48;;;;;;;29.90;13.95;;;;;;;13.11;100.00;101513.31;4994202;28;20030;-60
2022/10/02 07:33:28;;;;;;;28.80;13.93;;;;;;;13.13;100.00;101516.56;4993673;28;20049;-60
2022/10/02 07:36:04;;;;;;;29.25;14.73;;;;;;;13.11;100.00;101511.34;4991807;28;20034;-60
2022/10/02 07:38:43;;;;;;;31.42;14.98;;;;;;;13.20;100.00;101519.78;4990981;28;20471;-60
2022/10/02 07:41:14;;;;;;;27.67;14.40;;;;;;;13.27;100.00;101527.72;4990283;28;20106;-60
2022/10/02 07:44:10;;;;;;;28.08;14.52;;;;;;;13.33;100.00;101529.25;4991435;28;20030;-60
2022/10/02 07:46:46;;;;;;;29.67;15.13;;;;;;;13.31;100.00;101517.63;4991567;28;20026;-59
2022/10/02 07:49:29;;;;;;;27.80;15.63;;;;;;;13.46;100.00;101530.44;4992040;28;20049;-60
2022/10/02 07:52:19;;;;;;;30.10;16.17;;;;;;;13.54;100.00;101543.59;4991646;28;20505;-60
2022/10/02 07:55:07;;;;;;;29.95;16.10;;;;;;;13.62;100.00;101542.06;4991379;28;20639;-60
2022/10/02 07:58:07;;;;;;;29.52;16.95;;;;;;;13.71;100.00;101536.56;4990888;28;20022;-61
2022/10/02 08:00:39;;;;;;;27.67;17.00;;;;;;;13.78;100.00;101539.78;5005823;28;20419;-61
2022/10/02 08:03:23;;;;;;;29.27;16.38;;;;;;;13.88;100.00;101536.78;4991196;28;20034;-61
2022/10/02 08:05:52;;;;;;;27.48;16.08;;;;;;;13.86;100.00;101536.25;4989402;28;20038;-61
2022/10/02 08:08:25;;;;;;;32.10;16.02;;;;;;;13.91;100.00;101537.28;4989050;28;20030;-60
2022/10/02 08:10:56;;;;;;;26.98;15.70;;;;;;;13.91;100.00;101537.28;4991022;28;20031;-62
2022/10/02 08:13:30;;;;;;;28.65;16.38;;;;;;;14.01;100.00;101557.34;4993592;28;20040;-62
2022/10/02 08:15:55;;;;;;;27.45;15.77;;;;;;;14.06;100.00;101566.72;4998925;28;20137;-62
2022/10/02 08:18:47;;;;;;;28.27;15.35;;;;;;;14.12;100.00;101568.25;5001414;28;20561;-62
2022/10/02 08:21:19;;;;;;;27.05;15.70;;;;;;;14.13;100.00;101567.94;4990992;28;20035;-62
2022/10/02 08:23:58;;;;;;;30.35;16.02;;;;;;;14.13;100.00;101565.16;4990774;28;20390;-62
2022/10/02 08:26:41;;;;;;;27.83;15.57;;;;;;;14.24;100.00;101581.63;4990420;28;20027;-62
2022/10/02 08:29:14;;;;;;;27.50;16.10;;;;;;;14.30;100.00;101585.94;4991008;28;20062;-62
2022/10/02 08:31:40;;;;;;;27.23;15.30;;;;;;;14.34;100.00;101586.97;4989748;28;20030;-63
2022/10/02 08:34:20;;;;;;;28.05;15.38;;;;;;;14.38;100.00;101582.38;4996919;28;20038;-61
2022/10/02 08:37:00;;;;;;;27.10;15.85;;;;;;;14.43;100.00;101590.63;5010473;28;20034;-61
2022/10/02 08:39:59;;;;;;;25.15;15.13;;;;;;;14.46;100.00;101575.25;5010284;28;20091;-60
2022/10/02 08:43:16;;;;;;;26.80;14.65;;;;;;;14.56;100.00;101590.88;5010717;28;20030;-60
2022/10/02 08:46:13;;;;;;;24.20;13.93;;;;;;;14.57;100.00;101601.72;5010418;28;20034;-60
2022/10/02 08:49:05;;;;;;;25.65;14.02;;;;;;;14.38;100.00;101554.56;5010391;28;20077;-60
2022/10/02 08:52:09;;;;;;;26.90;14.35;;;;;;;14.68;100.00;101602.31;5009985;28;20140;-60
2022/10/02 08:54:55;;;;;;;27.83;13.30;;;;;;;14.77;100.00;101613.53;5010267;28;20026;-60
2022/10/02 08:57:44;;;;;;;24.98;13.52;;;;;;;14.80;100.00;101615.69;5009742;28;20029;-60
2022/10/02 09:00:54;;;;;;;25.60;12.63;;;;;;;14.86;100.00;101616.38;5009539;28;20112;-60
2022/10/02 09:03:56;;;;;;;24.42;11.57;;;;;;;14.74;100.00;101605.81;5009709;28;20096;-61
2022/10/02 09:07:08;;;;;;;25.83;11.65;;;;;;;14.75;100.00;101622.19;5008475;28;20025;-60
2022/10/02 09:09:44;;;;;;;25.15;11.50;;;;;;;14.71;100.00;101634.28;5009621;28;20041;-60
2022/10/02 09:12:36;;;;;;;24.23;11.52;;;;;;;14.69;100.00;101633.81;5008871;28;20096;-60
2022/10/02 09:15:28;;;;;;;23.80;12.10;;;;;;;14.67;100.00;101639.66;5009308;28;20520;-59
2022/10/02 09:18:31;;;;;;;22.00;11.45;;;;;;;14.66;100.00;101637.97;5009375;28;20068;-60
2022/10/02 09:21:17;;;;;;;24.45;12.10;;;;;;;14.69;100.00;101633.81;5008808;28;20487;-61
2022/10/02 09:24:28;;;;;;;25.35;11.77;;;;;;;14.84;100.00;101630.63;5009274;28;20470;-60
2022/10/02 09:27:21;;;;;;;23.25;11.15;;;;;;;14.96;100.00;101641.19;5009606;28;20049;-60
2022/10/02 09:30:25;;;;;;;25.55;11.82;;;;;;;15.06;100.00;101635.38;5009712;28;20397;-60
2022/10/02 09:33:18;;;;;;;23.52;11.40;;;;;;;15.21;99.95;101641.72;5009855;28;20030;-61
2022/10/02 09:35:43;;;;;;;24.15;11.40;;;;;;;15.18;99.33;101633.97;5013836;28;20076;-60
2022/10/02 09:38:28;;;;;;;24.63;10.60;;;;;;;15.24;98.19;101641.06;5012560;28;20049;-60
2022/10/02 09:41:31;;;;;;;26.35;10.43;;;;;;;15.29;98.09;101640.94;5013900;28;20112;-61
2022/10/02 09:44:27;;;;;;;21.05;10.52;;;;;;;15.37;97.58;101654.09;4994583;28;20040;-61
2022/10/02 09:47:35;;;;;;;22.48;9.43;;;;;;;15.46;96.37;101650.53;4995389;28;20033;-60
2022/10/02 09:50:39;;;;;;;22.85;10.20;;;;;;;15.43;95.87;101647.22;4984692;28;20041;-61
2022/10/02 09:53:14;;;;;;;22.02;9.30;;;;;;;15.30;95.07;101620.28;4995042;28;20030;-60
2022/10/02 09:56:10;;;;;;;23.15;10.10;;;;;;;15.44;94.74;101648.88;4994861;28;20434;-60
2022/10/02 09:58:45;;;;;;;24.42;10.07;;;;;;;15.49;93.66;101656.28;4987505;28;20130;-60
2022/10/02 10:01:35;;;;;;;20.00;9.40;;;;;;;15.52;94.64;101664.03;4994867;28;20453;-61
2022/10/02 10:04:16;;;;;;;21.90;9.82;;;;;;;15.47;93.80;101658.56;4995010;28;20125;-61
2022/10/02 10:07:10;;;;;;;22.58;10.15;;;;;;;15.52;94.95;101644.50;4994709;28;20049;-60
2022/10/02 10:09:50;;;;;;;21.92;9.27;;;;;;;15.62;92.58;101659.31;4994681;28;20038;-60
2022/10/02 10:12:26;;;;;;;20.85;9.30;;;;;;;15.60;92.08;101657.66;4994289;28;20037;-59
2022/10/02 10:15:29;;;;;;;25.17;9.27;;;;;;;15.70;93.01;101662.13;4994249;28;20066;-60
2022/10/02 10:18:25;;;;;;;22.35;8.85;;;;;;;15.55;90.25;101638.25;4973632;28;20042;-60
2022/10/02 10:21:18;;;;;;;22.98;9.23;;;;;;;15.83;90.51;101656.75;4994708;28;20030;-60
2022/10/02 10:24:22;;;;;;;20.23;9.30;;;;;;;15.99;90.11;101677.53;4994173;28;20034;-60
2022/10/02 10:27:00;;;;;;;21.15;9.00;;;;;;;15.97;86.59;101676.22;4982853;28;20141;-60
2022/10/02 10:29:31;;;;;;;21.75;9.07;;;;;;;15.93;86.69;101683.56;4994400;28;20080;-60
2022/10/02 10:32:15;;;;;;;22.05;8.55;;;;;;;15.85;86.73;101691.59;4993106;28;20147;-60
2022/10/02 10:34:53;;;;;;;21.85;8.98;;;;;;;15.89;87.72;101678.66;4993351;28;20433;-60
2022/10/02 10:40:35;;;;;;;22.88;8.70;;;;;;;16.34;84.98;101699.16;4995258;28;20042;-60
2022/10/02 10:43:36;;;;;;;21.63;8.88;;;;;;;16.37;81.94;101702.09;4994631;28;20030;-60
2022/10/02 10:46:30;;;;;;;21.02;8.45;;;;;;;16.25;82.59;101704.69;4993741;28;20030;-60
2022/10/02 10:49:20;;;;;;;22.05;9.13;;;;;;;16.14;80.83;101718.13;4993910;28;20026;-60
2022/10/02 10:52:12;;;;;;;21.95;8.45;;;;;;;16.06;82.92;101716.16;4994268;28;20135;-60
2022/10/02 10:54:56;;;;;;;18.52;8.15;;;;;;;16.00;80.19;101711.88;4994734;28;20030;-60
2022/10/02 10:57:59;;;;;;;18.13;8.07;;;;;;;16.10;81.19;101719.09;4994901;28;20035;-60
2022/10/02 11:00:32;;;;;;;19.88;9.40;;;;;;;16.19;80.53;101706.00;4994406;28;20089;-60
2022/10/02 11:03:16;;;;;;;21.20;8.20;;;;;;;16.27;77.83;101691.25;4993642;28;20062;-60
2022/10/02 11:05:58;;;;;;;24.08;8.15;;;;;;;16.39;79.38;101690.59;4993692;28;20050;-60
2022/10/02 11:08:42;;;;;;;20.38;8.00;;;;;;;16.53;75.28;101707.25;4993605;28;20081;-61
2022/10/02 11:11:26;;;;;;;21.95;8.35;;;;;;;16.58;72.39;101709.06;4993439;28;20030;-60
2022/10/02 11:13:58;;;;;;;19.48;8.27;;;;;;;16.64;74.16;101700.19;4993838;28;20648;-59
2022/10/02 11:16:42;;;;;;;19.48;8.25;;;;;;;16.71;73.71;101701.69;4994081;28;20486;-59
2022/10/02 11:19:21;;;;;;;22.45;8.98;;;;;;;16.76;73.29;101705.13;4994176;28;20026;-60
2022/10/02 11:21:55;;;;;;;21.02;8.52;;;;;;;16.76;71.97;101713.53;4993614;28;20089;-59
2022/10/02 11:24:38;;;;;;;22.15;9.40;;;;;;;16.72;71.28;101708.91;4993285;28;20145;-59
2022/10/02 11:27:25;;;;;;;19.83;8.50;;;;;;;16.68;73.23;101715.16;4994060;28;20081;-59
2022/10/02 11:30:19;;;;;;;17.17;8.63;;;;;;;16.68;74.04;101714.31;4993808;28;20035;-59
2022/10/02 11:33:12;;;;;;;19.00;8.35;;;;;;;16.71;73.39;101722.06;4993938;28;20106;-59
2022/10/02 11:35:55;;;;;;;21.35;8.75;;;;;;;16.64;74.29;101714.16;4993739;28;20045;-63
2022/10/02 11:38:59;;;;;;;19.58;8.20;;;;;;;16.48;73.37;101721.34;4993715;28;20033;-60
2022/10/02 11:41:33;;;;;;;20.05;8.57;;;;;;;16.33;74.42;101731.00;4988243;28;20113;-61
2022/10/02 11:44:29;;;;;;;23.75;9.52;;;;;;;16.28;75.56;101733.97;5002667;28;20049;-61
2022/10/02 11:47:00;;;;;;;19.15;8.80;;;;;;;16.16;75.91;101731.75;5012814;28;20053;-60
2022/10/02 11:49:44;;;;;;;20.80;8.85;;;;;;;16.13;75.84;101732.44;5012827;28;20104;-61
2022/10/02 11:52:30;;;;;;;19.88;9.00;;;;;;;16.07;76.50;101728.97;5012693;28;20041;-60
2022/10/02 11:55:33;;;;;;;21.58;9.50;;;;;;;16.08;77.25;101738.97;5012731;28;20226;-60
2022/10/02 11:58:40;;;;;;;21.40;8.55;;;;;;;16.08;77.59;101738.97;5012193;28;20049;-60
2022/10/02 12:01:09;;;;;;;20.88;8.82;;;;;;;16.13;78.15;101740.81;5013055;28;20026;-59
2022/10/02 12:04:08;;;;;;;22.92;8.32;;;;;;;16.17;77.76;101741.78;5012067;28;20026;-60
2022/10/02 12:06:55;;;;;;;20.88;8.70;;;;;;;16.23;76.58;101740.50;5012290;28;20040;-59
2022/10/02 12:09:26;;;;;;;20.17;8.25;;;;;;;16.26;75.56;101734.25;5010312;28;20060;-59
2022/10/02 12:11:59;;;;;;;22.70;8.88;;;;;;;16.45;76.04;101749.91;5012483;28;20038;-60
2022/10/02 12:14:43;;;;;;;22.17;8.10;;;;;;;16.51;73.47;101748.66;5011783;28;20125;-60